createdAt,value
2019-01-21T00:03:14.128Z,29.97
2019-01-21T00:07:27.990Z,25.60
2019-01-21T00:11:46.722Z,23.27
2019-01-21T00:16:05.474Z,29.30
2019-01-21T00:20:24.046Z,26.53
2019-01-21T00:24:42.133Z,26.23
2019-01-21T00:29:00.305Z,27.00
2019-01-21T00:33:18.524Z,28.50
2019-01-21T00:37:36.720Z,31.23
2019-01-21T00:41:54.964Z,28.43
2019-01-21T00:46:13.598Z,26.57
2019-01-21T00:50:31.913Z,30.03
2019-01-21T00:54:51.170Z,31.43
2019-01-21T00:59:09.498Z,29.43
2019-01-21T01:03:27.528Z,28.93
2019-01-21T01:07:46.300Z,28.57
2019-01-21T01:12:04.592Z,27.80
2019-01-21T01:16:22.765Z,26.10
2019-01-21T01:20:41.378Z,28.27
2019-01-21T01:25:00.341Z,30.70
2019-01-21T01:29:18.402Z,26.27
2019-01-21T01:33:36.945Z,29.97
2019-01-21T01:37:55.123Z,27.80
2019-01-21T01:42:13.189Z,26.93
2019-01-21T01:46:31.518Z,34.60
2019-01-21T01:50:50.254Z,31.73
2019-01-21T01:55:09.592Z,23.37
2019-01-21T01:59:27.994Z,26.90
2019-01-21T02:03:46.146Z,29.57
2019-01-21T02:08:04.279Z,38.03
2019-01-21T02:12:22.885Z,24.07
2019-01-21T02:16:41.233Z,34.30
2019-01-21T02:21:03.994Z,29.80
2019-01-21T02:25:27.629Z,30.47
2019-01-21T02:30:21.905Z,31.57
2019-01-21T02:35:17.317Z,32.33
2019-01-21T02:40:44.489Z,32.37
2019-01-21T02:45:55.449Z,30.13
2019-01-21T02:51:21.742Z,30.53
2019-01-21T02:56:40.679Z,31.30
2019-01-21T03:01:44.814Z,28.87
2019-01-21T03:07:27.351Z,30.70
2019-01-21T03:12:30.740Z,31.37
2019-01-21T03:18:07.942Z,28.10
2019-01-21T03:23:16.742Z,32.33
2019-01-21T03:28:38.268Z,31.00
2019-01-21T03:33:35.798Z,29.47
2019-01-21T03:38:57.410Z,33.27
2019-01-21T03:44:15.166Z,33.50
2019-01-21T03:48:54.997Z,26.70
2019-01-21T03:54:21.258Z,34.23
2019-01-21T03:59:04.050Z,33.83
2019-01-21T04:04:49.810Z,31.00
2019-01-21T04:09:51.930Z,29.87
2019-01-21T04:14:54.863Z,28.00
2019-01-21T04:20:09.335Z,29.37
2019-01-21T04:25:21.365Z,30.93
2019-01-21T04:30:38.678Z,26.37
2019-01-21T04:35:52.455Z,32.57
2019-01-21T04:40:58.359Z,31.73
2019-01-21T04:46:13.829Z,27.00
2019-01-21T04:51:14.957Z,27.80
2019-01-21T04:56:26.917Z,24.10
2019-01-21T05:01:37.165Z,29.80
2019-01-21T05:07:14.452Z,28.67
2019-01-21T05:12:30.470Z,23.80
2019-01-21T05:17:19.120Z,30.50
2019-01-21T05:23:03.593Z,24.03
2019-01-21T05:28:39.617Z,25.40
2019-01-21T05:33:54.439Z,22.37
2019-01-21T05:38:57.799Z,28.37
2019-01-21T05:44:22.979Z,22.93
2019-01-21T05:49:31.977Z,26.77
2019-01-21T05:54:56.487Z,26.90
2019-01-21T06:00:27.538Z,25.83
2019-01-21T06:05:19.110Z,25.10
2019-01-21T06:10:16.926Z,21.97
2019-01-21T06:15:44.100Z,22.70
2019-01-21T06:20:31.325Z,26.10
2019-01-21T06:25:46.971Z,23.23
2019-01-21T06:30:59.873Z,20.73
2019-01-21T06:36:04.982Z,23.97
2019-01-21T06:41:06.624Z,22.97
2019-01-21T06:46:33.107Z,20.03
2019-01-21T06:51:35.066Z,23.90
2019-01-21T06:56:53.422Z,19.07
2019-01-21T07:01:51.607Z,22.53
2019-01-21T07:07:11.558Z,20.07
2019-01-21T07:12:07.256Z,20.37
2019-01-21T07:17:49.540Z,23.40
2019-01-21T07:22:48.957Z,23.80
2019-01-21T07:27:51.517Z,25.17
2019-01-21T07:33:11.694Z,24.20
2019-01-21T07:38:07.163Z,22.60
2019-01-21T07:43:00.465Z,22.17
2019-01-21T07:48:30.512Z,22.17
2019-01-21T07:53:57.626Z,24.07
2019-01-21T07:59:21.311Z,25.07
2019-01-21T08:05:13.010Z,26.57
2019-01-21T08:10:19.296Z,21.27
2019-01-21T08:15:37.928Z,26.80
2019-01-21T08:20:48.563Z,23.97
2019-01-21T08:25:44.799Z,23.50
2019-01-21T08:31:00.356Z,23.60
2019-01-21T08:36:05.897Z,24.57
2019-01-21T08:41:36.620Z,25.60
2019-01-21T08:47:12.889Z,21.03
2019-01-21T08:52:28.823Z,27.57
2019-01-21T08:57:51.644Z,25.40
2019-01-21T09:03:01.148Z,26.70
2019-01-21T09:08:23.114Z,24.07
2019-01-21T09:13:24.927Z,26.43
2019-01-21T09:18:38.736Z,25.23
2019-01-21T09:24:03.267Z,25.13
2019-01-21T09:29:16.416Z,26.00
2019-01-21T09:34:13.181Z,27.67
2019-01-21T09:39:40.371Z,27.33
2019-01-21T09:44:59.526Z,26.50
2019-01-21T09:49:15.114Z,24.70
2019-01-21T09:53:34.043Z,28.00
2019-01-21T09:58:07.478Z,27.20
2019-01-21T10:02:45.947Z,27.63
2019-01-21T10:07:31.626Z,24.53
2019-01-21T10:13:07.066Z,27.03
2019-01-21T10:18:07.951Z,22.10
2019-01-21T10:23:18.656Z,25.57
2019-01-21T10:28:42.339Z,23.50
2019-01-21T10:34:03.960Z,23.97
2019-01-21T10:39:08.367Z,25.73
2019-01-21T10:44:19.121Z,24.23
2019-01-21T10:49:16.896Z,24.07
2019-01-21T10:54:50.046Z,18.87
2019-01-21T11:00:17.656Z,15.83
2019-01-21T11:05:08.483Z,11.13
2019-01-21T11:10:06.267Z,9.90
2019-01-21T11:15:03.621Z,8.20
2019-01-21T11:20:35.660Z,7.23
2019-01-21T11:25:48.911Z,8.93
2019-01-21T11:31:01.830Z,7.23
2019-01-21T11:36:32.301Z,7.23
2019-01-21T11:41:21.977Z,7.73
2019-01-21T11:46:43.494Z,7.60
2019-01-21T11:51:58.043Z,11.03
2019-01-21T11:56:58.734Z,12.00
2019-01-21T12:02:15.874Z,13.87
2019-01-21T12:07:07.720Z,16.87
2019-01-21T12:12:00.924Z,15.97
2019-01-21T12:17:21.447Z,18.67
2019-01-21T12:22:47.611Z,17.47
2019-01-21T12:28:23.170Z,22.57
2019-01-21T12:33:30.532Z,19.30
2019-01-21T12:38:34.169Z,21.87
2019-01-21T12:43:37.707Z,21.07
2019-01-21T12:48:51.094Z,24.80
2019-01-21T12:53:56.762Z,22.30
2019-01-21T12:59:05.662Z,23.23
2019-01-21T13:04:13.552Z,20.80
2019-01-21T13:09:03.957Z,12.70
2019-01-21T13:14:18.219Z,24.17
2019-01-21T13:19:42.871Z,26.00
2019-01-21T13:25:00.557Z,23.27
2019-01-21T13:30:26.336Z,24.20
2019-01-21T13:35:30.335Z,22.60
2019-01-21T13:40:59.604Z,20.43
2019-01-21T13:46:07.145Z,26.23
2019-01-21T13:51:30.160Z,17.70
2019-01-21T13:56:47.807Z,19.07
2019-01-21T14:01:38.826Z,21.17
2019-01-21T14:07:15.501Z,29.43
2019-01-21T14:11:57.581Z,27.13
2019-01-21T14:17:12.861Z,22.63
2019-01-21T14:22:04.740Z,25.97
2019-01-21T14:27:23.423Z,26.90
2019-01-21T14:32:54.517Z,24.40
2019-01-21T14:37:45.296Z,25.93
2019-01-21T14:42:53.353Z,26.47
2019-01-21T14:47:55.898Z,23.17
2019-01-21T14:53:08.487Z,27.63
2019-01-21T14:58:09.985Z,26.53
2019-01-21T15:03:46.816Z,26.80
2019-01-21T15:08:46.021Z,28.27
2019-01-21T15:13:59.628Z,27.30
2019-01-21T15:19:02.222Z,28.80
2019-01-21T15:24:00.947Z,27.37
2019-01-21T15:28:57.561Z,28.57
2019-01-21T15:33:48.762Z,32.33
2019-01-21T15:39:12.884Z,29.83
2019-01-21T15:44:14.993Z,28.67
2019-01-21T15:49:18.925Z,26.47
2019-01-21T15:54:35.202Z,33.00
2019-01-21T16:00:07.583Z,26.33
2019-01-21T16:04:59.240Z,31.93
2019-01-21T16:10:28.305Z,29.43
2019-01-21T16:15:00.834Z,28.80
2019-01-21T16:19:38.296Z,34.47
2019-01-21T16:24:42.771Z,36.53
2019-01-21T16:30:09.955Z,30.23
2019-01-21T16:35:52.292Z,30.33
2019-01-21T16:41:09.127Z,37.67
2019-01-21T16:45:27.467Z,32.53
2019-01-21T16:49:46.102Z,38.80
2019-01-21T16:54:04.512Z,32.43
2019-01-21T16:58:22.894Z,34.20
2019-01-21T17:02:41.101Z,33.23
2019-01-21T17:06:59.672Z,28.07
2019-01-21T17:11:17.953Z,28.13
2019-01-21T17:15:36.692Z,30.77
2019-01-21T17:19:55.060Z,21.67
2019-01-21T17:24:13.667Z,33.37
2019-01-21T17:28:32.323Z,28.07
2019-01-21T17:32:50.528Z,28.20
2019-01-21T17:37:10.057Z,31.73
2019-01-21T17:41:28.363Z,33.50
2019-01-21T17:45:47.021Z,28.23
2019-01-21T17:50:06.780Z,31.00
2019-01-21T17:54:25.220Z,32.33
2019-01-21T17:58:43.690Z,30.53
2019-01-21T18:03:02.567Z,29.73
2019-01-21T18:07:21.918Z,30.33
2019-01-21T18:11:41.470Z,32.50
2019-01-21T18:16:01.294Z,30.83
2019-01-21T18:20:25.464Z,31.13
2019-01-21T18:24:44.056Z,23.42
2019-01-21T18:29:02.363Z,30.20
2019-01-21T18:33:20.715Z,31.43
2019-01-21T18:37:39.351Z,34.17
2019-01-21T18:41:57.893Z,28.50
2019-01-21T18:46:16.227Z,31.73
2019-01-21T18:50:34.805Z,30.57
2019-01-21T18:54:53.246Z,31.10
2019-01-21T18:59:12.445Z,36.50
2019-01-21T19:03:30.892Z,31.90
2019-01-21T19:07:51.097Z,36.57
2019-01-21T19:12:09.253Z,34.07
2019-01-21T19:16:27.748Z,30.60
2019-01-21T19:20:46.057Z,31.93
2019-01-21T19:25:05.413Z,32.10
2019-01-21T19:29:24.726Z,29.40
2019-01-21T19:33:43.425Z,32.93
2019-01-21T19:38:04.680Z,29.50
2019-01-21T19:42:23.349Z,32.60
2019-01-21T19:46:45.300Z,29.93
2019-01-21T19:51:03.908Z,29.40
2019-01-21T19:55:30.005Z,34.80
2019-01-21T19:59:48.494Z,31.40
2019-01-21T20:04:08.414Z,32.30
2019-01-21T20:08:26.806Z,27.63
2019-01-21T20:12:45.471Z,34.67
2019-01-21T20:17:06.475Z,28.73
2019-01-21T20:21:25.738Z,27.47
2019-01-21T20:25:44.103Z,32.33
2019-01-21T20:30:02.732Z,28.27
2019-01-21T20:34:22.628Z,29.10
2019-01-21T20:38:41.097Z,30.27
2019-01-21T20:43:02.616Z,29.90
2019-01-21T20:47:22.845Z,28.13
2019-01-21T20:51:41.682Z,28.07
2019-01-21T20:56:00.389Z,32.57
2019-01-21T21:00:27.481Z,33.70
2019-01-21T21:04:45.605Z,29.83
2019-01-21T21:09:07.714Z,29.30
2019-01-21T21:13:26.051Z,31.23
2019-01-21T21:17:44.535Z,36.70
2019-01-21T21:22:02.758Z,33.90
2019-01-21T21:26:20.943Z,33.97
2019-01-21T21:30:40.460Z,35.93
2019-01-21T21:34:59.046Z,27.93
2019-01-21T21:39:17.270Z,33.00
2019-01-21T21:43:35.510Z,32.33
2019-01-21T21:47:53.630Z,31.17
2019-01-21T21:52:12.715Z,32.90
2019-01-21T21:56:31.117Z,31.50
2019-01-21T22:00:49.566Z,34.43
2019-01-21T22:05:08.935Z,31.63
2019-01-21T22:09:27.068Z,28.90
2019-01-21T22:13:45.878Z,29.80
2019-01-21T22:18:04.171Z,35.37
2019-01-21T22:22:22.374Z,31.87
2019-01-21T22:26:42.230Z,34.37
2019-01-21T22:31:00.453Z,35.97
2019-01-21T22:35:19.101Z,33.17
2019-01-21T22:39:37.766Z,38.13
2019-01-21T22:43:56.115Z,31.80
2019-01-21T22:48:14.316Z,28.57
2019-01-21T22:52:32.742Z,32.73
2019-01-21T22:56:50.948Z,30.37
2019-01-21T23:01:36.177Z,32.80
2019-01-21T23:05:54.735Z,27.87
2019-01-21T23:10:13.033Z,34.20
2019-01-21T23:14:31.558Z,32.33
2019-01-21T23:18:50.736Z,30.43
2019-01-21T23:23:09.096Z,34.20
2019-01-21T23:27:27.253Z,26.80
2019-01-21T23:31:45.747Z,26.80
2019-01-21T23:36:04.027Z,29.40
2019-01-21T23:40:22.344Z,30.13
2019-01-21T23:44:40.429Z,29.23
2019-01-21T23:48:58.662Z,32.20
2019-01-21T23:53:16.735Z,32.20
2019-01-21T23:57:34.903Z,28.97
